Time;durP1;ratioP1;P1;durP2;ratioP2;P2;SDS_P1;SDS_P2;PMS_P1;PMS_P2;Temp;Humidity;BMP_temperature;BMP_pressure;BME280_temperature;BME280_humidity;BME280_pressure;Samples;Min_cycle;Max_cycle;Signal;HPM_P1;HPM_P2
2021/01/02 00:00:54;;;;;;;2.30;2.20;;;;;;;3.59;90.05;101353.50;6309165;28;20281;-76
2021/01/02 00:04:47;;;;;;;2.00;1.90;;;;;;;3.66;89.31;101354.56;6305683;28;20231;-77
2021/01/02 00:08:23;;;;;;;2.20;2.20;;;;;;;3.67;90.10;101350.84;6270531;28;20194;-75
2021/01/02 00:11:40;;;;;;;2.00;2.00;;;;;;;3.57;89.63;101360.91;6218224;28;20201;-75
2021/01/02 00:14:58;;;;;;;1.87;1.87;;;;;;;3.64;88.73;101359.28;6313807;28;20635;-76
2021/01/02 00:18:25;;;;;;;1.90;1.80;;;;;;;3.51;89.07;101350.75;6312275;28;20279;-75
2021/01/02 00:21:38;;;;;;;2.53;2.27;;;;;;;3.59;90.34;101353.50;6303734;28;20190;-76
2021/01/02 00:24:53;;;;;;;2.10;2.10;;;;;;;3.42;90.99;101354.41;6312403;28;20325;-76
2021/01/02 00:28:17;;;;;;;1.90;1.80;;;;;;;3.25;91.94;101359.84;6313835;28;20187;-76
2021/01/02 00:32:02;;;;;;;1.50;1.50;;;;;;;3.08;92.96;101380.44;6307381;28;20194;-76
2021/01/02 00:35:15;;;;;;;1.83;1.83;;;;;;;3.03;92.69;101369.28;6307806;28;20221;-76
2021/01/02 00:38:26;;;;;;;1.70;1.70;;;;;;;3.22;93.25;101369.09;6305391;28;20190;-77
2021/01/02 00:41:34;;;;;;;1.60;1.60;;;;;;;3.46;91.81;101366.59;6301769;28;20304;-76
2021/01/02 00:44:41;;;;;;;1.60;1.60;;;;;;;3.33;91.30;101368.84;6307696;28;20781;-75
2021/01/02 00:47:48;;;;;;;2.00;1.90;;;;;;;3.30;92.84;101374.56;6288557;28;20207;-76
2021/01/02 00:50:54;;;;;;;2.00;2.00;;;;;;;3.25;92.92;101374.19;6308859;28;20236;-76
2021/01/02 00:54:07;;;;;;;1.90;1.80;;;;;;;3.32;92.75;101383.31;6319520;28;20277;-75
2021/01/02 00:57:29;;;;;;;2.10;2.00;;;;;;;3.50;91.26;101376.03;6315401;28;20779;-77
2021/01/02 01:00:34;;;;;;;2.20;2.10;;;;;;;3.59;90.53;101380.50;6309140;28;20210;-77
2021/01/02 01:04:25;;;;;;;2.00;1.90;;;;;;;3.40;91.93;101378.00;6321947;28;20374;-76
2021/01/02 01:07:35;;;;;;;1.90;1.90;;;;;;;3.55;90.93;101368.31;6317654;28;20212;-76
2021/01/02 01:10:39;;;;;;;2.10;2.10;;;;;;;3.48;91.60;101378.06;6315941;28;20187;-76
2021/01/02 01:13:43;;;;;;;2.43;2.33;;;;;;;3.61;91.57;101386.56;6318526;28;20642;-77
2021/01/02 01:16:51;;;;;;;2.20;2.10;;;;;;;3.62;90.68;101385.56;6318739;28;20214;-75
2021/01/02 01:19:58;;;;;;;2.30;2.20;;;;;;;3.64;90.15;101383.56;6319023;28;20257;-75
2021/01/02 01:23:26;;;;;;;2.53;2.17;;;;;;;3.54;90.64;101377.44;6312743;28;20200;-76
2021/01/02 01:27:13;;;;;;;2.20;2.10;;;;;;;3.51;90.27;101375.03;6283994;28;20274;-77
2021/01/02 01:30:22;;;;;;;2.20;2.20;;;;;;;3.60;90.43;101384.88;6319995;28;20201;-76
2021/01/02 01:33:31;;;;;;;2.00;2.00;;;;;;;3.49;91.13;101385.13;6312069;28;20221;-76
2021/01/02 01:36:35;;;;;;;2.40;2.30;;;;;;;3.54;91.04;101387.38;6318303;28;20194;-76
2021/01/02 01:39:45;;;;;;;2.40;2.27;;;;;;;3.48;90.64;101382.59;6318821;28;20702;-76
2021/01/02 01:43:04;;;;;;;2.40;2.30;;;;;;;3.62;90.32;101390.94;6305717;28;20218;-76
2021/01/02 01:46:13;;;;;;;2.60;2.50;;;;;;;3.63;90.15;101379.16;6319235;28;20191;-76
2021/01/02 01:49:44;;;;;;;2.50;2.40;;;;;;;3.63;90.02;101376.47;6320227;28;20679;-77
2021/01/02 01:53:24;;;;;;;2.50;2.40;;;;;;;3.78;88.19;101376.72;6309676;28;20201;-76
2021/01/02 01:56:33;;;;;;;2.43;2.40;;;;;;;3.65;89.22;101387.94;6303075;28;20570;-76
2021/01/02 02:00:01;;;;;;;2.37;2.27;;;;;;;3.62;89.31;101385.56;6331687;28;20182;-76
2021/01/02 02:03:24;;;;;;;2.40;2.40;;;;;;;3.61;88.58;101381.19;6313849;28;20260;-76
2021/01/02 02:06:30;;;;;;;2.20;2.20;;;;;;;3.67;88.88;101388.63;6323027;28;20206;-77
2021/01/02 02:09:41;;;;;;;2.53;2.43;;;;;;;3.65;89.42;101384.38;6324557;28;20255;-77
2021/01/02 02:12:52;;;;;;;2.37;2.37;;;;;;;3.43;89.16;101353.41;6317908;28;20209;-76
2021/01/02 02:15:57;;;;;;;2.40;2.33;;;;;;;3.55;89.33;101376.41;6317124;28;20194;-75
2021/01/02 02:19:13;;;;;;;2.63;2.53;;;;;;;3.66;89.14;101397.75;6318501;28;20201;-76
2021/01/02 02:22:21;;;;;;;2.30;2.30;;;;;;;3.63;89.71;101402.59;6303319;28;20260;-76
2021/01/02 02:25:35;;;;;;;2.80;2.70;;;;;;;3.60;89.83;101387.56;6310590;28;20313;-75
2021/01/02 02:29:06;;;;;;;2.73;2.63;;;;;;;3.56;90.01;101391.59;6320399;28;20197;-76
2021/01/02 02:32:17;;;;;;;3.10;2.90;;;;;;;3.59;89.33;101395.84;6317654;28;20281;-76
2021/01/02 02:35:22;;;;;;;2.97;2.87;;;;;;;3.55;90.30;101406.09;6329442;28;20213;-76
2021/01/02 02:38:35;;;;;;;2.90;2.80;;;;;;;3.57;89.86;101401.38;6316847;28;20299;-76
2021/01/02 02:41:43;;;;;;;2.60;2.50;;;;;;;3.53;89.92;101405.41;6316394;28;20198;-76
2021/01/02 02:44:48;;;;;;;2.73;2.63;;;;;;;3.59;89.00;101396.69;6318050;28;20543;-77
2021/01/02 02:47:54;;;;;;;2.47;2.37;;;;;;;3.55;89.83;101392.59;6318157;28;20321;-76
2021/01/02 02:50:59;;;;;;;2.63;2.57;;;;;;;3.56;89.83;101390.75;6311949;28;20234;-75
2021/01/02 02:54:05;;;;;;;2.73;2.53;;;;;;;3.53;90.03;101401.84;6312625;28;20211;-75
2021/01/02 02:57:16;;;;;;;3.10;2.90;;;;;;;3.46;90.52;101396.25;6328010;28;20524;-77
2021/01/02 03:00:20;;;;;;;2.40;2.40;;;;;;;3.45;90.14;101394.56;6319373;28;20210;-76
2021/01/02 03:03:42;;;;;;;2.80;2.70;;;;;;;3.44;90.97;101398.25;6327406;28;20264;-76
2021/01/02 03:06:46;;;;;;;2.77;2.67;;;;;;;3.52;91.06;101395.59;6325443;28;20202;-76
2021/01/02 03:09:51;;;;;;;3.10;2.90;;;;;;;3.55;90.28;101400.69;6313653;28;20194;-74
2021/01/02 03:12:54;;;;;;;3.20;3.00;;;;;;;3.59;88.91;101402.09;6316217;28;20210;-76
2021/01/02 03:15:58;;;;;;;2.67;2.57;;;;;;;3.51;89.42;101404.72;6330074;28;20214;-76
2021/01/02 03:19:04;;;;;;;2.57;2.47;;;;;;;3.42;89.63;101400.25;6319234;28;20281;-75
2021/01/02 03:22:10;;;;;;;2.50;2.50;;;;;;;3.57;89.21;101404.06;6318605;28;20210;-75
2021/01/02 03:25:16;;;;;;;4.63;2.67;;;;;;;3.58;89.34;101411.19;6305865;28;20551;-76
2021/01/02 03:28:24;;;;;;;3.00;2.90;;;;;;;3.51;89.92;101399.31;6294001;28;20199;-76
2021/01/02 03:31:29;;;;;;;2.70;2.60;;;;;;;3.39;89.97;101388.94;6271587;28;20559;-76
2021/01/02 03:34:36;;;;;;;2.63;2.50;;;;;;;3.49;90.37;101401.31;6291331;28;20665;-76
2021/01/02 03:37:46;;;;;;;2.70;2.60;;;;;;;3.54;89.59;101401.72;6289929;28;20194;-76
2021/01/02 03:40:50;;;;;;;3.10;3.00;;;;;;;3.48;89.72;101405.03;6290124;28;20687;-75
2021/01/02 03:43:54;;;;;;;2.83;2.73;;;;;;;3.60;89.01;101398.38;6291211;28;20199;-75
2021/01/02 03:46:57;;;;;;;2.90;2.80;;;;;;;3.49;89.20;101404.00;6279882;28;20205;-77
2021/01/02 03:50:01;;;;;;;2.93;2.67;;;;;;;3.50;89.60;101412.97;6287551;28;20226;-76
2021/01/02 03:53:07;;;;;;;3.30;3.10;;;;;;;3.45;89.35;101410.72;6286482;28;20205;-75
2021/01/02 03:56:12;;;;;;;2.97;2.87;;;;;;;3.45;89.97;101405.34;6282360;28;20298;-75
2021/01/02 03:59:16;;;;;;;2.87;2.67;;;;;;;3.50;89.00;101415.66;6290865;28;20199;-76
2021/01/02 04:02:20;;;;;;;2.27;2.27;;;;;;;3.46;89.76;101412.44;6304872;28;20269;-77
2021/01/02 04:05:24;;;;;;;2.73;2.63;;;;;;;3.40;89.83;101423.00;6289485;28;20202;-75
2021/01/02 04:08:31;;;;;;;2.40;2.30;;;;;;;3.48;90.05;101410.44;6296494;28;20188;-76
2021/01/02 04:11:39;;;;;;;2.90;2.80;;;;;;;3.45;89.46;101426.06;6303501;28;20216;-74
2021/01/02 04:14:42;;;;;;;2.70;2.60;;;;;;;3.57;89.87;101428.34;6292408;28;20219;-76
2021/01/02 04:17:46;;;;;;;2.90;2.80;;;;;;;3.59;90.23;101429.06;6289215;28;20285;-75
2021/01/02 04:20:49;;;;;;;2.77;2.70;;;;;;;3.47;90.15;101419.50;6286945;28;20259;-75
2021/01/02 04:23:53;;;;;;;3.10;3.00;;;;;;;3.55;89.23;101426.81;6292743;28;20516;-76
2021/01/02 04:27:00;;;;;;;3.20;3.10;;;;;;;3.54;90.44;101426.00;6309885;28;20242;-75
2021/01/02 04:30:06;;;;;;;3.60;3.40;;;;;;;3.61;89.51;101432.44;6301312;28;20200;-75
2021/01/02 04:33:18;;;;;;;3.13;3.03;;;;;;;3.64;89.66;101432.13;6314267;28;20283;-75
2021/01/02 04:36:22;;;;;;;3.23;3.13;;;;;;;3.47;89.74;101403.31;6314468;28;20215;-75
2021/01/02 04:39:26;;;;;;;3.03;2.93;;;;;;;3.62;89.72;101423.31;6310322;28;20194;-75
2021/01/02 04:42:31;;;;;;;2.90;2.70;;;;;;;3.66;90.26;101421.19;6304891;28;20213;-76
2021/01/02 04:45:36;;;;;;;3.17;2.97;;;;;;;3.67;90.49;101426.41;6318288;28;20217;-75
2021/01/02 04:48:44;;;;;;;3.10;2.97;;;;;;;3.64;90.53;101431.28;6315928;28;20205;-77
2021/01/02 04:51:48;;;;;;;3.73;3.43;;;;;;;3.54;90.65;101415.22;6305429;28;20731;-75
2021/01/02 04:54:52;;;;;;;3.80;3.50;;;;;;;3.61;90.79;101432.44;6301995;28;20229;-76
2021/01/02 04:57:58;;;;;;;3.40;3.30;;;;;;;3.56;91.90;101434.78;6319187;28;20220;-76
2021/01/02 05:01:03;;;;;;;3.47;3.33;;;;;;;3.64;91.66;101437.53;6307700;28;20190;-77
2021/01/02 05:04:10;;;;;;;4.13;3.73;;;;;;;3.50;91.24;101437.25;6324248;28;20313;-75
2021/01/02 05:07:24;;;;;;;3.93;3.63;;;;;;;3.46;92.34;101442.13;6296769;28;20461;-75
2021/01/02 05:10:28;;;;;;;3.60;3.50;;;;;;;3.44;92.40;101441.41;6308996;28;20661;-76
2021/01/02 05:13:33;;;;;;;4.13;3.67;;;;;;;3.66;92.05;101446.31;6312580;28;20242;-76
2021/01/02 05:16:38;;;;;;;3.80;3.60;;;;;;;3.41;93.86;101447.13;6320568;28;20485;-76
2021/01/02 05:19:58;;;;;;;4.23;3.97;;;;;;;3.21;94.13;101440.19;6323335;28;20208;-76
2021/01/02 05:23:08;;;;;;;3.30;3.20;;;;;;;3.41;94.14;101452.53;6312030;28;20199;-76
2021/01/02 05:26:12;;;;;;;3.83;3.60;;;;;;;3.39;95.40;101465.31;6312859;28;20241;-76
2021/01/02 05:29:35;;;;;;;4.30;3.90;;;;;;;3.63;94.20;101457.41;6313725;28;20255;-76
2021/01/02 05:32:56;;;;;;;3.70;3.60;;;;;;;3.69;93.31;101455.94;6314759;28;20201;-76
2021/01/02 05:36:00;;;;;;;4.13;3.87;;;;;;;3.45;94.60;101458.44;6312020;28;20222;-76
2021/01/02 05:39:08;;;;;;;4.33;3.87;;;;;;;3.28;94.69;101452.06;6310055;28;20307;-77
2021/01/02 05:42:16;;;;;;;4.60;4.30;;;;;;;3.48;95.48;101461.69;6306868;28;20202;-77
2021/01/02 05:45:23;;;;;;;4.07;3.80;;;;;;;3.26;94.65;101405.53;6305047;28;20205;-77
2021/01/02 05:48:29;;;;;;;3.90;3.70;;;;;;;3.50;95.00;101467.75;6313491;28;20190;-76
2021/01/02 05:51:39;;;;;;;5.07;3.90;;;;;;;3.50;95.91;101466.91;6317453;28;20229;-76
2021/01/02 05:54:49;;;;;;;4.30;3.93;;;;;;;3.56;95.55;101471.69;6318295;28;20212;-76
2021/01/02 05:57:53;;;;;;;5.30;4.10;;;;;;;3.43;95.64;101477.50;6318714;28;20203;-77
2021/01/02 06:01:11;;;;;;;4.53;4.23;;;;;;;3.37;96.49;101469.16;6312009;28;20197;-76
2021/01/02 06:04:14;;;;;;;4.63;4.33;;;;;;;3.43;95.61;101482.88;6317115;28;20221;-76
2021/01/02 06:07:17;;;;;;;4.07;3.77;;;;;;;3.51;96.75;101485.66;6307226;28;20202;-77
2021/01/02 06:10:21;;;;;;;4.50;4.20;;;;;;;3.44;96.19;101479.16;6318101;28;20196;-76
2021/01/02 06:13:27;;;;;;;4.00;3.80;;;;;;;3.47;95.83;101478.00;6316998;28;20687;-77
2021/01/02 06:16:31;;;;;;;4.80;3.97;;;;;;;3.23;97.02;101486.75;6312302;28;20222;-76
2021/01/02 06:19:35;;;;;;;4.57;4.27;;;;;;;3.19;97.25;101496.13;6316163;28;20197;-76
2021/01/02 06:22:41;;;;;;;4.00;3.80;;;;;;;3.32;97.08;101496.59;6318381;28;20202;-77
2021/01/02 06:25:46;;;;;;;4.70;4.40;;;;;;;3.38;96.51;101504.09;6322555;28;20237;-77
2021/01/02 06:28:51;;;;;;;4.37;4.07;;;;;;;3.54;95.64;101506.94;6322081;28;20247;-75
2021/01/02 06:31:54;;;;;;;3.73;3.53;;;;;;;3.46;94.53;101490.69;6310678;28;20196;-76
2021/01/02 06:35:20;;;;;;;3.87;3.77;;;;;;;3.48;95.71;101504.84;6317211;28;20387;-76
2021/01/02 06:38:28;;;;;;;4.87;3.67;;;;;;;3.35;97.08;101506.22;6317236;28;20386;-76
2021/01/02 06:41:31;;;;;;;4.10;3.63;;;;;;;3.22;97.13;101501.22;6316568;28;20320;-75
2021/01/02 06:44:43;;;;;;;4.10;3.80;;;;;;;3.33;96.87;101519.03;6315095;28;20617;-75
2021/01/02 06:47:47;;;;;;;3.90;3.70;;;;;;;3.42;97.17;101524.34;6316314;28;20197;-75
2021/01/02 06:50:52;;;;;;;3.70;3.50;;;;;;;3.35;95.53;101522.41;6307170;28;20303;-75
2021/01/02 06:53:56;;;;;;;3.10;3.00;;;;;;;3.39;95.31;101524.66;6310951;28;20308;-77
2021/01/02 06:57:04;;;;;;;3.47;3.37;;;;;;;3.20;95.42;101503.22;6316037;28;20208;-75
2021/01/02 07:00:25;;;;;;;3.40;3.20;;;;;;;3.31;94.58;101532.69;6315895;28;20230;-76
2021/01/02 07:03:48;;;;;;;3.30;3.20;;;;;;;3.27;96.03;101539.38;6308868;28;20622;-76
2021/01/02 07:06:51;;;;;;;3.40;3.17;;;;;;;3.22;94.84;101538.13;6306972;28;20581;-76
2021/01/02 07:09:55;;;;;;;3.50;3.20;;;;;;;3.19;95.57;101550.06;6312709;28;20194;-76
2021/01/02 07:13:09;;;;;;;3.43;3.33;;;;;;;3.20;95.26;101549.06;6316293;28;20193;-76
2021/01/02 07:16:31;;;;;;;3.43;3.33;;;;;;;3.26;94.73;101548.47;6315797;28;20257;-76
2021/01/02 07:19:43;;;;;;;3.40;3.20;;;;;;;2.96;96.21;101543.41;6306367;28;20247;-75
2021/01/02 07:22:59;;;;;;;3.47;3.27;;;;;;;3.15;95.30;101537.91;6299410;28;20286;-76
2021/01/02 07:26:21;;;;;;;3.07;2.97;;;;;;;3.12;95.31;101565.16;6315575;28;20791;-76
2021/01/02 07:29:25;;;;;;;3.70;3.43;;;;;;;3.11;95.76;101566.16;6330431;28;20194;-77
2021/01/02 07:32:31;;;;;;;3.63;3.33;;;;;;;3.19;95.31;101571.63;6305678;28;20255;-76
2021/01/02 07:35:35;;;;;;;3.07;2.97;;;;;;;3.24;94.52;101574.72;6312217;28;20210;-76
2021/01/02 07:38:38;;;;;;;2.73;2.70;;;;;;;3.27;94.06;101579.81;6305718;28;20195;-76
2021/01/02 07:41:43;;;;;;;3.10;3.00;;;;;;;3.13;93.46;101577.66;6313328;28;20646;-76
2021/01/02 07:44:54;;;;;;;2.80;2.60;;;;;;;3.15;93.74;101587.28;6315099;28;20652;-76
2021/01/02 07:48:00;;;;;;;2.70;2.67;;;;;;;3.38;91.23;101576.06;6314777;28;20258;-76
2021/01/02 07:51:14;;;;;;;2.87;2.77;;;;;;;3.29;92.36;101594.00;6314108;28;20590;-76
2021/01/02 07:54:32;;;;;;;3.20;3.10;;;;;;;3.20;92.58;101600.31;6315674;28;20193;-76
2021/01/02 07:57:35;;;;;;;2.90;2.80;;;;;;;3.15;92.95;101608.00;6307213;28;20214;-76
2021/01/02 08:00:39;;;;;;;2.70;2.70;;;;;;;3.06;93.75;101603.50;6302668;28;20896;-75
2021/01/02 08:03:49;;;;;;;2.90;2.70;;;;;;;2.93;95.03;101611.06;6314679;28;20202;-75
2021/01/02 08:06:55;;;;;;;2.70;2.60;;;;;;;3.06;94.46;101603.50;6314154;28;20228;-75
2021/01/02 08:09:59;;;;;;;3.00;2.90;;;;;;;3.34;92.32;101607.88;6314670;28;20679;-75
2021/01/02 08:13:02;;;;;;;2.90;2.80;;;;;;;3.32;93.14;101639.56;6317035;28;20227;-76
2021/01/02 08:16:10;;;;;;;2.63;2.53;;;;;;;3.27;93.41;101633.75;6328129;28;20241;-76
2021/01/02 08:19:14;;;;;;;2.40;2.40;;;;;;;3.03;92.79;101625.41;6314518;28;20315;-75
2021/01/02 08:22:30;;;;;;;2.30;2.20;;;;;;;3.14;92.06;101630.56;6300186;28;20541;-76
2021/01/02 08:25:34;;;;;;;2.17;2.17;;;;;;;3.07;93.67;101637.56;6318890;28;20236;-76
2021/01/02 08:28:38;;;;;;;2.70;2.50;;;;;;;3.14;92.58;101638.66;6309215;28;20196;-76
2021/01/02 08:31:49;;;;;;;2.17;2.17;;;;;;;3.26;92.09;101642.88;6313292;28;20288;-76
2021/01/02 08:34:53;;;;;;;2.43;2.43;;;;;;;3.26;92.11;101648.25;6320624;28;20186;-77
2021/01/02 08:38:04;;;;;;;2.27;2.17;;;;;;;3.09;92.56;101651.72;6317766;28;20224;-76
2021/01/02 08:41:18;;;;;;;2.17;2.17;;;;;;;3.17;93.42;101662.63;6317467;28;20382;-77
2021/01/02 08:44:26;;;;;;;2.30;2.20;;;;;;;3.31;91.81;101650.50;6314640;28;20202;-76
2021/01/02 08:47:30;;;;;;;2.17;2.07;;;;;;;3.27;91.07;101666.13;6309057;28;20564;-76
2021/01/02 08:50:34;;;;;;;2.27;2.17;;;;;;;3.03;92.42;101655.06;6292080;28;20217;-75
2021/01/02 08:53:40;;;;;;;2.30;2.20;;;;;;;3.02;92.55;101669.50;6314365;28;20223;-76
2021/01/02 08:56:43;;;;;;;2.10;2.10;;;;;;;3.03;92.50;101690.09;6313456;28;20223;-76
2021/01/02 08:59:46;;;;;;;2.00;2.00;;;;;;;2.93;93.50;101694.63;6311649;28;20190;-76
2021/01/02 09:03:01;;;;;;;2.37;2.17;;;;;;;3.05;92.11;101688.09;6311803;28;20617;-75
2021/01/02 09:06:20;;;;;;;2.17;2.10;;;;;;;2.93;91.40;101651.50;6312413;28;20206;-75
2021/01/02 09:09:24;;;;;;;1.80;1.80;;;;;;;3.12;90.77;101694.59;6311717;28;20835;-75
2021/01/02 09:12:27;;;;;;;1.90;1.90;;;;;;;3.13;90.61;101689.03;6313669;28;20195;-77
2021/01/02 09:15:53;;;;;;;1.77;1.70;;;;;;;3.13;91.08;101707.09;6313738;28;20216;-77
2021/01/02 09:18:57;;;;;;;1.50;1.50;;;;;;;3.06;91.57;101700.56;6302971;28;20202;-75
2021/01/02 09:22:01;;;;;;;1.90;1.90;;;;;;;3.07;92.38;101704.97;6312709;28;20208;-75
2021/01/02 09:25:11;;;;;;;1.93;1.90;;;;;;;3.18;91.43;101707.50;6306713;28;20277;-76
2021/01/02 09:28:19;;;;;;;2.10;2.00;;;;;;;3.30;90.44;101706.28;6311469;28;20286;-76
2021/01/02 09:31:23;;;;;;;1.73;1.73;;;;;;;3.38;89.98;101706.41;6308830;28;20209;-77
2021/01/02 09:34:27;;;;;;;1.80;1.80;;;;;;;3.32;89.59;101706.97;6313231;28;20280;-76
2021/01/02 09:37:31;;;;;;;1.73;1.70;;;;;;;3.41;89.94;101716.03;6310671;28;20582;-76
2021/01/02 09:40:37;;;;;;;1.80;1.80;;;;;;;3.40;90.43;101725.13;6331752;28;20192;-76
2021/01/02 09:43:41;;;;;;;1.90;1.90;;;;;;;3.32;89.83;101711.53;6324238;28;20202;-76
2021/01/02 09:46:49;;;;;;;1.93;1.83;;;;;;;3.11;90.23;101726.09;6315440;28;20195;-76
2021/01/02 09:49:52;;;;;;;1.73;1.73;;;;;;;3.09;92.47;101738.03;6316003;28;20205;-76
2021/01/02 09:52:55;;;;;;;1.97;1.90;;;;;;;2.99;92.29;101731.81;6315262;28;20224;-76
2021/01/02 09:55:59;;;;;;;1.80;1.80;;;;;;;2.78;92.73;101698.81;6314760;28;20290;-76
2021/01/02 09:59:03;;;;;;;1.80;1.80;;;;;;;3.16;91.78;101729.19;6310584;28;20199;-76
2021/01/02 10:02:07;;;;;;;2.13;2.13;;;;;;;3.04;91.91;101729.53;6311475;28;20207;-76
2021/01/02 10:05:18;;;;;;;2.03;2.03;;;;;;;2.94;92.97;101717.91;6309051;28;20210;-77
2021/01/02 10:08:27;;;;;;;2.30;2.30;;;;;;;3.23;92.45;101744.78;6307136;28;20584;-76
2021/01/02 10:11:32;;;;;;;2.33;2.17;;;;;;;3.21;92.00;101742.22;6312223;28;20209;-76
2021/01/02 10:14:37;;;;;;;2.07;2.07;;;;;;;3.18;92.79;101731.75;6308349;28;20200;-76
2021/01/02 10:17:40;;;;;;;2.20;2.10;;;;;;;3.15;92.39;101748.22;6307489;28;20622;-77
2021/01/02 10:20:43;;;;;;;2.50;2.40;;;;;;;3.12;93.04;101743.13;6304473;28;20212;-77
2021/01/02 10:23:48;;;;;;;2.80;2.70;;;;;;;3.26;92.95;101739.97;6314865;28;20678;-77
2021/01/02 10:26:53;;;;;;;2.87;2.60;;;;;;;3.30;92.82;101751.28;6311956;28;20263;-76
2021/01/02 10:29:56;;;;;;;2.53;2.50;;;;;;;3.29;91.63;101745.03;6313028;28;20288;-76
2021/01/02 10:32:59;;;;;;;2.70;2.50;;;;;;;3.23;93.13;101751.03;6314734;28;20568;-76
2021/01/02 10:36:03;;;;;;;2.50;2.40;;;;;;;3.41;92.66;101749.28;6314616;28;20433;-76
2021/01/02 10:39:08;;;;;;;3.37;2.77;;;;;;;3.41;91.74;101733.09;6306930;28;20634;-74
2021/01/02 10:42:15;;;;;;;2.40;2.30;;;;;;;3.42;91.32;101728.50;6317781;28;20201;-75
2021/01/02 10:45:20;;;;;;;2.37;2.17;;;;;;;3.62;91.04;101740.94;6318229;28;20205;-75
2021/01/02 10:48:37;;;;;;;1.97;1.97;;;;;;;3.66;90.48;101748.56;6331548;28;20266;-74
2021/01/02 10:51:40;;;;;;;2.10;2.10;;;;;;;3.64;90.71;101755.13;6311683;28;20265;-76
2021/01/02 10:54:44;;;;;;;3.00;2.20;;;;;;;3.60;90.47;101749.16;6307393;28;20206;-76
2021/01/02 10:57:49;;;;;;;2.30;2.10;;;;;;;3.41;91.22;101727.69;6310870;28;20209;-78
2021/01/02 11:00:55;;;;;;;2.63;2.13;;;;;;;3.53;91.15;101748.06;6311159;28;20206;-75
2021/01/02 11:04:00;;;;;;;2.47;2.37;;;;;;;3.64;91.39;101755.97;6310078;28;20586;-75
2021/01/02 11:07:06;;;;;;;2.53;2.40;;;;;;;3.75;90.78;101761.16;6297464;28;20639;-75
2021/01/02 11:10:12;;;;;;;2.77;2.60;;;;;;;3.78;90.95;101768.94;6313258;28;20695;-75
2021/01/02 11:13:27;;;;;;;2.53;2.43;;;;;;;3.42;92.03;101750.94;6318558;28;20507;-78
2021/01/02 11:16:31;;;;;;;2.87;2.67;;;;;;;3.14;92.50;101746.50;6316704;28;20573;-77
2021/01/02 11:19:34;;;;;;;2.57;2.53;;;;;;;3.29;93.35;101776.56;6312020;28;20570;-76
2021/01/02 11:22:38;;;;;;;3.00;2.90;;;;;;;3.25;94.17;101773.31;6312507;28;20722;-77
2021/01/02 11:25:41;;;;;;;4.10;3.90;;;;;;;3.21;94.42;101768.38;6303033;28;22257;-76
2021/01/02 11:28:45;;;;;;;5.97;5.47;;;;;;;3.19;94.23;101781.97;6313153;28;20209;-77
2021/01/02 11:31:49;;;;;;;4.53;4.23;;;;;;;2.98;95.69;101773.22;6311296;28;20226;-77
2021/01/02 11:34:58;;;;;;;4.13;3.83;;;;;;;3.04;95.78;101773.50;6325389;28;20201;-75
2021/01/02 11:38:01;;;;;;;3.57;3.40;;;;;;;3.09;95.79;101775.75;6310264;28;20224;-77
2021/01/02 11:41:06;;;;;;;2.90;2.80;;;;;;;3.24;94.83;101774.28;6301154;28;20202;-77
2021/01/02 11:44:14;;;;;;;2.97;2.93;;;;;;;3.22;94.36;101775.44;6306935;28;20534;-75
2021/01/02 11:47:17;;;;;;;4.13;3.30;;;;;;;3.27;94.41;101774.00;6309888;28;20202;-77
2021/01/02 11:50:21;;;;;;;6.90;6.30;;;;;;;3.26;93.96;101780.41;6317205;28;20221;-77
2021/01/02 11:53:25;;;;;;;3.80;3.60;;;;;;;3.15;94.52;101778.75;6329819;28;20406;-76
2021/01/02 11:56:30;;;;;;;3.90;3.70;;;;;;;3.14;95.18;101789.66;6312494;28;20262;-77
2021/01/02 11:59:35;;;;;;;4.67;4.37;;;;;;;3.11;95.51;101780.03;6306678;28;20231;-77
2021/01/02 12:02:41;;;;;;;3.50;3.30;;;;;;;3.08;95.97;101788.38;6308100;28;20197;-77
2021/01/02 12:05:45;;;;;;;3.43;3.27;;;;;;;3.03;95.49;101798.75;6311445;28;20203;-76
2021/01/02 12:08:48;;;;;;;3.63;3.50;;;;;;;3.13;95.38;101798.75;6298912;28;20229;-77
2021/01/02 12:11:53;;;;;;;5.23;4.97;;;;;;;3.14;95.02;101801.31;6303251;28;20228;-76
2021/01/02 12:14:58;;;;;;;3.83;3.63;;;;;;;3.12;94.88;101778.19;6306665;28;20287;-77
2021/01/02 12:18:01;;;;;;;3.67;3.47;;;;;;;3.17;94.55;101798.31;6314632;28;20214;-77
2021/01/02 12:21:05;;;;;;;3.57;3.33;;;;;;;3.07;95.06;101761.59;6314560;28;20239;-77
2021/01/02 12:24:09;;;;;;;4.17;3.97;;;;;;;3.22;95.08;101795.19;6319829;28;20208;-78
2021/01/02 12:27:14;;;;;;;4.03;3.83;;;;;;;3.36;94.60;101802.81;6317209;28;20283;-77
2021/01/02 12:30:20;;;;;;;4.50;3.70;;;;;;;3.23;95.11;101791.50;6314123;28;20186;-77
2021/01/02 12:33:32;;;;;;;3.93;3.80;;;;;;;3.32;93.80;101798.69;6315110;28;20292;-77
2021/01/02 12:36:39;;;;;;;3.93;3.67;;;;;;;3.42;94.01;101794.13;6313015;28;20705;-77
2021/01/02 12:39:45;;;;;;;3.80;3.60;;;;;;;3.42;93.69;101802.22;6297500;28;20206;-77
2021/01/02 12:42:48;;;;;;;3.77;3.67;;;;;;;3.46;93.38;101817.13;6301253;28;20273;-77
2021/01/02 12:45:56;;;;;;;4.50;4.20;;;;;;;3.38;94.03;101814.31;6312178;28;20202;-77
2021/01/02 12:48:59;;;;;;;4.60;4.30;;;;;;;3.31;93.81;101807.81;6304759;28;20212;-77
2021/01/02 12:52:20;;;;;;;4.43;4.03;;;;;;;3.22;94.57;101808.66;6313829;28;20695;-77
2021/01/02 12:55:24;;;;;;;4.30;4.10;;;;;;;3.20;94.24;101821.44;6314535;28;20281;-77
2021/01/02 12:58:28;;;;;;;4.23;3.93;;;;;;;3.33;93.75;101827.38;6318782;28;20229;-77
2021/01/02 13:01:38;;;;;;;4.10;3.87;;;;;;;3.34;92.81;101823.66;6324027;28;20188;-77
2021/01/02 13:04:42;;;;;;;4.63;4.27;;;;;;;3.28;94.23;101832.38;6319667;28;20194;-77
2021/01/02 13:07:45;;;;;;;5.07;4.70;;;;;;;3.29;94.29;101836.75;6317628;28;20200;-77
2021/01/02 13:10:59;;;;;;;4.60;4.30;;;;;;;3.30;93.65;101837.59;6298641;28;20625;-77
2021/01/02 13:14:05;;;;;;;4.73;4.43;;;;;;;3.33;94.31;101842.72;6319216;28;20289;-77
2021/01/02 13:17:14;;;;;;;6.60;4.07;;;;;;;3.28;94.32;101843.16;6301073;28;20533;-77
2021/01/02 13:20:17;;;;;;;5.30;4.13;;;;;;;3.26;94.65;101853.25;6322881;28;20185;-77
2021/01/02 13:23:24;;;;;;;4.73;4.43;;;;;;;3.29;94.09;101846.72;6311500;28;20606;-77
2021/01/02 13:26:27;;;;;;;4.73;4.27;;;;;;;1.87;94.20;101648.19;6320282;28;20270;-77
2021/01/02 13:29:32;;;;;;;4.57;4.27;;;;;;;3.14;94.11;101838.19;6318936;28;20199;-77
2021/01/02 13:32:37;;;;;;;4.97;4.67;;;;;;;3.49;93.56;101865.38;6305597;28;20198;-77
2021/01/02 13:35:43;;;;;;;5.20;4.80;;;;;;;3.43;93.78;101871.38;6304657;28;20626;-77
2021/01/02 13:38:46;;;;;;;5.10;4.53;;;;;;;3.38;93.26;101879.06;6316264;28;20762;-77
2021/01/02 13:41:50;;;;;;;4.80;4.50;;;;;;;3.32;93.55;101878.75;6317283;28;20190;-77
2021/01/02 13:44:53;;;;;;;5.80;5.30;;;;;;;3.23;93.12;101864.31;6302321;28;20667;-76
2021/01/02 13:47:58;;;;;;;5.87;5.47;;;;;;;3.36;93.12;101881.03;6316528;28;21683;-76
2021/01/02 13:51:02;;;;;;;5.40;4.90;;;;;;;3.34;93.44;101883.00;6338430;28;20268;-77
2021/01/02 13:54:06;;;;;;;5.37;4.97;;;;;;;3.34;93.35;101892.97;6316829;28;20209;-77
2021/01/02 13:57:09;;;;;;;5.53;5.13;;;;;;;3.28;93.59;101889.00;6316705;28;20212;-77
2021/01/02 14:00:14;;;;;;;6.33;5.77;;;;;;;3.28;93.39;101894.41;6313494;28;20236;-76
2021/01/02 14:03:38;;;;;;;5.50;5.10;;;;;;;3.46;93.04;101902.59;6311866;28;20605;-77
2021/01/02 14:06:45;;;;;;;5.67;5.27;;;;;;;3.27;92.80;101903.47;6328169;28;20238;-77
2021/01/02 14:09:48;;;;;;;6.27;5.77;;;;;;;3.35;93.57;101900.91;6314599;28;20707;-77
2021/01/02 14:12:52;;;;;;;6.20;5.70;;;;;;;3.37;93.43;101904.31;6315607;28;20307;-77
2021/01/02 14:15:55;;;;;;;6.47;5.97;;;;;;;3.34;93.01;101909.16;6307822;28;20205;-77
2021/01/02 14:19:00;;;;;;;5.60;5.23;;;;;;;3.26;92.99;101906.31;6312698;28;20244;-77
2021/01/02 14:22:03;;;;;;;5.50;5.10;;;;;;;3.22;93.47;101905.75;6317401;28;21020;-76
2021/01/02 14:25:09;;;;;;;5.33;4.83;;;;;;;3.26;92.64;101917.97;6316324;28;20316;-77
2021/01/02 14:28:17;;;;;;;5.97;5.47;;;;;;;3.27;91.34;101914.25;6311846;28;20213;-76
2021/01/02 14:31:21;;;;;;;5.53;5.07;;;;;;;3.33;92.49;101907.44;6315731;28;20190;-76
2021/01/02 14:34:26;;;;;;;7.00;5.80;;;;;;;3.35;91.34;101921.63;6317518;28;20285;-77
2021/01/02 14:37:30;;;;;;;5.37;4.87;;;;;;;3.48;91.67;101928.44;6314834;28;20273;-77
2021/01/02 14:40:33;;;;;;;6.03;5.53;;;;;;;3.52;91.09;101929.84;6299614;28;20614;-76
2021/01/02 14:43:37;;;;;;;4.93;4.53;;;;;;;3.33;91.01;101940.69;6315490;28;20182;-76
2021/01/02 14:46:41;;;;;;;5.13;4.83;;;;;;;3.38;91.71;101933.00;6317239;28;20182;-76